WetterOnline ( https://www.wetteronline.de )

Wetter aktuell PLZ Bereich 73547

Aktuelles Wetter: Kaisersbach-Cronhütte (489m)

6-stündlich | Neueste Meldungen
Ortszeit Temperatur Wetter
Mo, 15.07. 20:00 20.2° C fast wolkenlos
Mo, 15.07. 14:00 18.7° C leicht bewölkt
Mo, 15.07. 8:00 12.0° C fast wolkenlos
Mo, 15.07. 2:00 10.6° C wolkig
So, 14.07. 20:00 15.1° C bewölkt
So, 14.07. 14:00 17.4° C bewölkt
So, 14.07. 8:00 16.5° C leicht bewölkt
So, 14.07. 2:00 12.4° C bedeckt
Ortszeit Temperatur Wetter
Mo, 15.07. 22:00 15.2° C wolkig
Mo, 15.07. 21:50 15.2° C wolkig
Mo, 15.07. 21:40 15.3° C wolkig
Mo, 15.07. 21:30 15.9° C wolkig
Mo, 15.07. 21:20 15.9° C wolkig
Mo, 15.07. 21:10 16.6° C wolkig
Mo, 15.07. 21:00 18.0° C leicht bewölkt
Mo, 15.07. 20:30 19.7° C wolkenlos
Mo, 15.07. 20:00 20.2° C fast wolkenlos
Mo, 15.07. 19:30 20.9° C wolkenlos
Mo, 15.07. 19:00 21.2° C wolkenlos
Ortszeit Relative Feuchte Sichtweite
Mo, 15.07. 20:00 53% 65 km
Mo, 15.07. 14:00 68% 35 km
Mo, 15.07. 8:00 91% 16 km
Mo, 15.07. 2:00 94% 50 km
So, 14.07. 20:00 89% 28 km
So, 14.07. 14:00 72% 55 km
So, 14.07. 8:00 78% 28 km
So, 14.07. 2:00 95% 12 km
Ortszeit Relative Feuchte Sichtweite
Mo, 15.07. 22:00 79% 35 km
Mo, 15.07. 21:50 79% -
Mo, 15.07. 21:40 78% -
Mo, 15.07. 21:30 75% 45 km
Mo, 15.07. 21:20 75% -
Mo, 15.07. 21:10 70% -
Mo, 15.07. 21:00 62% 50 km
Mo, 15.07. 20:30 55% 60 km
Mo, 15.07. 20:00 53% 65 km
Mo, 15.07. 19:30 49% 65 km
Mo, 15.07. 19:00 49% 50 km
Ortszeit Niederschlagsmenge Niederschlagsart
Mo, 15.07. 20:00 0.0 l/m2 in 12 Std. -
Mo, 15.07. 14:00 0.0 l/m2 in 6 Std. -
Mo, 15.07. 8:00 0.1 l/m2 in 12 Std. Regen
Mo, 15.07. 2:00 0.0 l/m2 in 6 Std. -
So, 14.07. 20:00 4 l/m2 in 12 Std. Regen
So, 14.07. 14:00 0.1 l/m2 in 6 Std. Regen
So, 14.07. 8:00 0.0 l/m2 in 12 Std. -
So, 14.07. 2:00 0.0 l/m2 in 6 Std. -
Ortszeit Niederschlagsmenge Niederschlagsart
Mo, 15.07. 22:00 0.0 l/m2 in 1 Std. -
Mo, 15.07. 21:50 keine Meldung -
Mo, 15.07. 21:40 keine Meldung -
Mo, 15.07. 21:30 0.0 l/m2 in 1 Std. -
Mo, 15.07. 21:20 keine Meldung -
Mo, 15.07. 21:10 keine Meldung -
Mo, 15.07. 21:00 0.0 l/m2 in 1 Std. -
Mo, 15.07. 20:30 0.0 l/m2 in 1 Std. -
Mo, 15.07. 20:00 0.0 l/m2 in 1 Std. -
Mo, 15.07. 19:30 0.0 l/m2 in 1 Std. -
Mo, 15.07. 19:00 0.0 l/m2 in 1 Std. -
Ortszeit Stärke Spitze Richtung
km/h Bft. km/h Grad Sektor
Mo, 15.07. 20:00 9 2 28 360° N
Mo, 15.07. 14:00 7 2 22 220° SW
Mo, 15.07. 8:00 7 2 14 30° NO
Mo, 15.07. 2:00 6 1 17 350° N
So, 14.07. 20:00 4 1 25 320° NW
So, 14.07. 14:00 6 1 20 310° NW
So, 14.07. 8:00 0 0 4 - -
So, 14.07. 2:00 0 0 14 - -
Ortszeit Stärke Spitze Richtung
km/h Bft. km/h Grad Sektor
Mo, 15.07. 22:00 4 1 11 340° N
Mo, 15.07. 21:50 4 1 - 340° N
Mo, 15.07. 21:40 4 1 - 330° NW
Mo, 15.07. 21:30 4 1 11 300° NW
Mo, 15.07. 21:20 4 1 - 300° NW
Mo, 15.07. 21:10 4 1 - 310° NW
Mo, 15.07. 21:00 6 1 17 320° NW
Mo, 15.07. 20:30 7 2 18 320° NW
Mo, 15.07. 20:00 9 2 19 360° N
Mo, 15.07. 19:30 9 2 19 310° NW
Mo, 15.07. 19:00 7 2 22 320° NW
Ortszeit Untergrenze Bedeckung Gattung
total tief tief mittel hoch
Mo, 15.07. 20:00 1500 m 1/8 1/8 - - -
Mo, 15.07. 14:00 780 m 4/8 5/8 - - -
Mo, 15.07. 8:00 150 m 1/8 1/8 - - -
Mo, 15.07. 2:00 1500 m 6/8 6/8 - - -
So, 14.07. 20:00 1800 m 8/8 4/8 - - -
So, 14.07. 14:00 1320 m 7/8 7/8 - - -
So, 14.07. 8:00 3000 m 2/8 2/8 - - -
So, 14.07. 2:00 3300 m 8/8 8/8 - - -
Ortszeit Bedeckungsgrad in Achtel und Wolkenuntergrenze
Mo, 15.07. 22:00 2(7800m) 3(8700m) 7(9000m)
Mo, 15.07. 21:50 2(7800m) 3(8700m) 7(9000m)
Mo, 15.07. 21:40 3(7800m) 8(10500m)
Mo, 15.07. 21:30 7(7800m) 7(8700m) 7(9000m)
Mo, 15.07. 21:20 7(7800m) 7(8700m) 7(9000m)
Mo, 15.07. 21:10 5(7800m) 6(8700m) 7(9000m)
Mo, 15.07. 21:00 3(8100m) 5(9000m) 5(9000m)
Mo, 15.07. 20:30 4(8400m)
Mo, 15.07. 20:00 1(1500m)
Mo, 15.07. 19:30 keine Wolken
Mo, 15.07. 19:00 keine Wolken
Ortszeit Luftdruck NN (hPa) Tendenz (hPa in 3 Std.)
Mo, 15.07. 20:00 1015 - 0,1
Mo, 15.07. 14:00 1016 - 0,2
Mo, 15.07. 8:00 1017 + 0,2
Mo, 15.07. 2:00 1018 + 0,3
So, 14.07. 20:00 1016 - 0,2
So, 14.07. 14:00 1016 - 0,5
So, 14.07. 8:00 1016 - 0,5
So, 14.07. 2:00 1018 - 0,5
Ortszeit Luftdruck NN (hPa) Tendenz (hPa in 3 Std.)
Mo, 15.07. 22:00 1017 + 1,0
Mo, 15.07. 21:50 1017 keine Meldung
Mo, 15.07. 21:40 1017 keine Meldung
Mo, 15.07. 21:30 1017 + 0,7
Mo, 15.07. 21:20 1017 keine Meldung
Mo, 15.07. 21:10 1016 keine Meldung
Mo, 15.07. 21:00 1016 + 0,5
Mo, 15.07. 20:30 1015 + 0,4
Mo, 15.07. 20:00 1015 - 0,1
Mo, 15.07. 19:30 1015 - 0,2
Mo, 15.07. 19:00 1015 - 0,2
Ortszeit Schneehöhe (cm)
Mo, 15.07. 20:00 -
Mo, 15.07. 14:00 -
Mo, 15.07. 8:00 -
Mo, 15.07. 2:00 -
So, 14.07. 20:00 -
So, 14.07. 14:00 -
So, 14.07. 8:00 -
So, 14.07. 2:00 -
Ortszeit Schneehöhe (cm)
Mo, 15.07. 22:00 -
Mo, 15.07. 21:50 -
Mo, 15.07. 21:40 -
Mo, 15.07. 21:30 -
Mo, 15.07. 21:20 -
Mo, 15.07. 21:10 -
Mo, 15.07. 21:00 -
Mo, 15.07. 20:30 -
Mo, 15.07. 20:00 -
Mo, 15.07. 19:30 -
Mo, 15.07. 19:00 -
Link zu dieser Seite / Seite empfehlen

Das Wetter in ...